Flight Track Log - Related Links

Times and Time Zones

All times are in EDT time to prevent confusion due to time zone crossing. See the N8421U flight status page for this flight to view local times or setup timezone preferences in your user account.

Time Position Orientation Groundspeed Altitude Reporting Facility
EDT Latitude Longitude Course Direction KTS MPH feet Rate Location/Type
Mon 01:59:16 PM 42.8933 -75.7403 295° West 100 115 2,500  Level Boston Center
Mon 01:59:34 PM 42.8978 -75.7533 295° West 102 117 2,500  Level Boston Center
Mon 02:00:35 PM 42.9069 -75.7881 290° West 101 116 2,500 49 Level Boston Center
Mon 02:01:36 PM 42.9131 -75.8278 282° West 98 113 2,600 50 Climbing Boston Center
Mon 02:02:36 PM 42.9178 -75.8642 280° West 99 114 2,600 50 Level Boston Center
Mon 02:03:36 PM 42.9222 -75.9006 279° West 110 127 2,700 52 Climbing Boston Center
Mon 02:04:32 PM 42.9203 -75.9375 266° West 112 129 2,700 -52 Level Boston Center
Mon 02:05:32 PM 42.9139 -75.9764 257° West 104 120 2,600 -149 Descending Boston Center
Mon 02:06:33 PM 42.9053 -76.0144 253° West 104 120 2,400 -347 Descending Boston Center
Mon 02:07:33 PM 42.9028 -76.0544 265° West 104 120 1,900 -446 Descending Boston Center
Mon 02:08:34 PM 42.8833 -76.0803 224° Southwest 113 130 1,500 -38 Descending Boston Center
Mon 02:10:12 PM 42.8961 -76.0814 356° North 90 104 1,800 250 Climbing Boston Center
Mon 02:10:34 PM 42.9042 -76.0839 347° North 82 94 2,000 500 Climbing Boston Center
Mon 02:11:36 PM 42.9256 -76.0847 358° North 77 89 2,500 469 Climbing Boston Center
Mon 02:12:42 PM 42.9522 -76.0786 10° North 85 98 3,000 238 Climbing Boston Center
Mon 02:13:42 PM 42.9803 -76.0758 North 109 125 3,000 -50 Level Boston Center
Mon 02:14:43 PM 43.0117 -76.0681 10° North 112 129 2,900  Descending Boston Center
Mon 02:15:43 PM 43.0400 -76.0653 North 105 121 3,000 47 Climbing Boston Center
Mon 02:16:50 PM 43.0747 -76.0617 North 106 122 3,000 -47 Level Boston Center
Mon 02:17:50 PM 43.1025 -76.0617 360° North 103 119 2,900  Descending Boston Center
Mon 02:18:51 PM 43.1325 -76.0622 359° North 104 120 3,000  Climbing Boston Center
Mon 02:19:58 PM 43.1653 -76.0581 North 108 124 2,900 -141 Descending Boston Center
Mon 02:20:59 PM 43.1964 -76.0503 10° North 109 125 2,700 -99 Descending Boston Center
Mon 02:21:59 PM 43.2267 -76.0481 North 112 129 2,700  Level Boston Center
Mon 02:23:01 PM 43.2564 -76.0486 359° North 106 122 2,700 49 Level Boston Center
Mon 02:24:01 PM 43.2833 -76.0425 North 104 120 2,800 94 Climbing Boston Center
Mon 02:25:08 PM 43.3164 -76.0356 North 107 123 2,900  Climbing Boston Center
Mon 02:26:08 PM 43.3428 -76.0436 347° North 105 121 2,800 -50 Descending Boston Center
Mon 02:27:09 PM 43.3747 -76.0450 358° North 111 128 2,800  Level Boston Center
Mon 02:28:15 PM 43.4092 -76.0442 North 108 124 2,800 45 Level Boston Center
Mon 02:29:22 PM 43.4400 -76.0392 North 106 122 2,900 47 Climbing Boston Center
Mon 02:30:23 PM 43.4703 -76.0369 North 108 124 2,900  Level Boston Center
Mon 02:31:11 PM 43.4947 -76.0300 12° North 109 125 2,900  Level Boston Center
Mon 02:32:12 PM 43.5247 -76.0308 359° North 108 124 2,900  Level Boston Center
Mon 02:33:06 PM 43.5519 -76.0333 356° North 108 124 2,900  Level Boston Center
Mon 02:34:08 PM 43.5819 -76.0342 359° North 106 122 2,900  Level Boston Center

Login

Don't have an account? Register now (free) for customized features, flight alerts, and more!